Clay Center, Ohio
Current Conditions -  °F | °C
As of 3:53 PM on Wednesday 17 Dec 2014 (Local Time) from KTDZ Reporting Station
Overcast Overcast  
Wind Chill: 18°   Ceiling: 1900
Heat Index: 30°   Visibility: 10mi
Dew Point: 22°   Wind: 20mph
Humidity: 72%   Direction: 290°WNW
Pressure: 30.13"   Gusts: NA
Location:  41.56°N, 83.36°W
Report Text: KTDZ 172053Z AUTO 29017KT 10SM OVC019 M01/M06 A3013 RMK AO2 SLP209 T10111056 53002 TSNO
Loading
Personal Weather Stations






























Interactive Weather Map New forecast layout! Learn more

10-Day Weather Forecast

Advertisements
Track Severe Weather on mobile